Lucille Brooks — WDG5458 — position and weather

sailwx.info

Track history (hours):
 
Tides and Currents Weather Stations Pressure Air Temp Water Temp Dewpoint Dewpoint Depression Visibility Wind Speed Wind Dir Waves Ship Positions

Lucille Brooks

Owner: Kirby Inland Marine, LP, Houston, TX. More information available from US FCC via Universal Licensing System and Coast Guard Vessel Documentation Center.

Last reported at 2017-Nov-18 07:09 UTC. Time now 2017-Nov-20 12:11 UTC.
Position N 29°30' W 094°52'.

Length 110 m; draft 2.9 m.

Type: . MMSI: 367024990.

Date/timePositionNaut miles runAvg speedWind from/ knotsBaromVisibWave heightAir tempDewpointWater temp
2017-Nov-18 07:09N 29°30' W 094°52'2 6.0
2017-Nov-18 06:54N 29°31' W 094°53'2 6.0
2017-Nov-18 06:30N 29°33' W 094°54'3 6.1
2017-Nov-18 06:00N 29°35' W 094°56'3 6.0
2017-Nov-18 05:30N 29°38' W 094°58'3 6.3
2017-Nov-18 05:00N 29°41' W 094°59'3 5.1
2017-Nov-18 04:30N 29°43' W 095°01'2 4.2
2017-Nov-18 04:00N 29°44' W 095°03'2 0.7
2017-Nov-18 00:42N 29°46' W 095°05'1 5.3
2017-Nov-18 00:26N 29°45' W 095°06'2 5.7
2017-Nov-18 00:00N 29°44' W 095°09'5 0.4
2017-Nov-17 12:59N 29°43' W 095°14'0 0.0
2017-Nov-17 10:27N 29°43' W 095°14'0 0.0
2017-Nov-17 09:59N 29°43' W 095°14'0 0.0
2017-Nov-17 09:24N 29°43' W 095°14'0 0.0
2017-Nov-17 08:54N 29°43' W 095°14'0 0.0
2017-Nov-17 08:30N 29°43' W 095°14'0 0.1
2017-Nov-17 07:59N 29°43' W 095°14'0 0.1
2017-Nov-17 07:30N 29°43' W 095°14'0 0.0
2017-Nov-17 07:00N 29°43' W 095°14'0 0.0
2017-Nov-17 06:30N 29°43' W 095°14'0 0.0
2017-Nov-17 06:01N 29°43' W 095°14'0 0.0
2017-Nov-17 05:28N 29°43' W 095°14'0 0.0
2017-Nov-17 04:59N 29°43' W 095°14'0 0.0
2017-Nov-17 04:25N 29°43' W 095°14'0 0.9
2017-Nov-17 04:00N 29°43' W 095°14'2 4.1
2017-Nov-17 03:30N 29°44' W 095°12'3 5.8
2017-Nov-17 03:00N 29°44' W 095°09'4 6.7
2017-Nov-17 02:28N 29°46' W 095°05'1 1.3
2017-Nov-17 01:43N 29°46' W 095°04'0 0.8
2017-Nov-17 01:22N 29°46' W 095°04'1 1.2
2017-Nov-17 00:37N 29°46' W 095°05'0 0.0
2017-Nov-16 20:27N 29°46' W 095°05'1 1.6
2017-Nov-16 19:33N 29°45' W 095°06'2 0.2
2017-Nov-16 12:02N 29°46' W 095°05'0 6.7
2017-Nov-16 11:59N 29°46' W 095°05'0 0.4
2017-Nov-16 11:10N 29°46' W 095°06'0 0.1
2017-Nov-16 08:35N 29°46' W 095°05'1 5.3
2017-Nov-16 08:20N 29°45' W 095°06'0 0.0
2017-Nov-16 06:28N 29°45' W 095°06'0 0.1
2017-Nov-16 05:59N 29°45' W 095°06'2 0.6
2017-Nov-16 03:01N 29°46' W 095°05'0 4.9
2017-Nov-16 02:58N 29°46' W 095°05'1 1.6
2017-Nov-16 02:02N 29°45' W 095°06'0 1.0
2017-Nov-16 01:55N 29°45' W 095°06'0 0.0
2017-Nov-16 01:23N 29°45' W 095°06'0 0.0
2017-Nov-16 00:58N 29°45' W 095°06'3 3.2
2017-Nov-16 00:04N 29°44' W 095°03'1 6.6
2017-Nov-15 23:57N 29°44' W 095°02'2 5.5
2017-Nov-15 23:30N 29°42' W 095°00'3 6.4
2017-Nov-15 23:00N 29°39' W 094°58'3 6.7
2017-Nov-15 22:30N 29°36' W 094°57'3 6.3
2017-Nov-15 22:00N 29°33' W 094°55'  
2017-Nov-12 03:42N 29°03' W 095°13'33 4.9
2017-Nov-11 21:03N 29°30' W 094°52'1 6.6
2017-Nov-11 20:57N 29°30' W 094°53'3 6.5
2017-Nov-11 20:30N 29°33' W 094°54'3 6.6
2017-Nov-11 20:00N 29°35' W 094°57'3 6.5
2017-Nov-11 19:30N 29°38' W 094°58'3 6.8
2017-Nov-11 19:00N 29°42' W 094°60'3 6.3
2017-Nov-11 18:30N 29°44' W 095°02'3 1.1
2017-Nov-11 15:36N 29°46' W 095°05'1 0.9
2017-Nov-11 14:22N 29°46' W 095°06'0 0.8
2017-Nov-11 13:58N 29°46' W 095°06'1 2.0
2017-Nov-11 13:26N 29°45' W 095°06'3 6.8
2017-Nov-11 12:59N 29°45' W 095°10'3 6.0
2017-Nov-11 12:29N 29°43' W 095°13'1 2.0
2017-Nov-11 12:00N 29°43' W 095°14'0 0.0
2017-Nov-11 11:27N 29°43' W 095°14'3 5.6
2017-Nov-11 11:00N 29°45' W 095°12'3 6.5
2017-Nov-11 10:29N 29°44' W 095°08'2 3.5
2017-Nov-11 09:53N 29°46' W 095°06'0 0.0
2017-Nov-11 09:30N 29°46' W 095°06'0 0.0
2017-Nov-11 09:00N 29°46' W 095°06'0 0.0
2017-Nov-11 08:29N 29°46' W 095°06'0 0.0
2017-Nov-11 08:00N 29°46' W 095°06'0 0.0
2017-Nov-11 07:30N 29°45' W 095°06'0 0.0
2017-Nov-11 07:00N 29°46' W 095°06'0 0.5
2017-Nov-11 06:07N 29°46' W 095°06'1 6.0
2017-Nov-11 05:55N 29°46' W 095°04'0 0.4
2017-Nov-11 05:22N 29°46' W 095°04'1 0.1
2017-Nov-11 01:43N 29°46' W 095°05'0 0.1
2017-Nov-11 01:29N 29°46' W 095°05'1 1.4
2017-Nov-11 00:59N 29°46' W 095°05'0 0.1
2017-Nov-10 23:05N 29°46' W 095°05'  
2017-Nov-08 07:55N 29°46' W 095°05'3 6.1
2017-Nov-08 07:29N 29°44' W 095°03'  
Track history (hours):
 
Tides and Currents Weather Stations Pressure Air Temp Water Temp Dewpoint Dewpoint Depression Visibility Wind Speed Wind Dir Waves Ship Positions

Lucille Brooks

Owner: Kirby Inland Marine, LP, Houston, TX. More information available from US FCC via Universal Licensing System and Coast Guard Vessel Documentation Center.

Last reported at 2017-Nov-18 07:09 UTC. Time now 2017-Nov-20 12:11 UTC.
Position N 29°30' W 094°52'.

Length 110 m; draft 2.9 m.

Type: . MMSI: 367024990.

Date/timePositionNaut miles runAvg speedWind from/ knotsBaromVisibWave heightAir tempDewpointWater temp
2017-Nov-18 07:09N 29°30' W 094°52'2 6.0
2017-Nov-18 06:54N 29°31' W 094°53'2 6.0
2017-Nov-18 06:30N 29°33' W 094°54'3 6.1
2017-Nov-18 06:00N 29°35' W 094°56'3 6.0
2017-Nov-18 05:30N 29°38' W 094°58'3 6.3
2017-Nov-18 05:00N 29°41' W 094°59'3 5.1
2017-Nov-18 04:30N 29°43' W 095°01'2 4.2
2017-Nov-18 04:00N 29°44' W 095°03'2 0.7
2017-Nov-18 00:42N 29°46' W 095°05'1 5.3
2017-Nov-18 00:26N 29°45' W 095°06'2 5.7
2017-Nov-18 00:00N 29°44' W 095°09'5 0.4
2017-Nov-17 12:59N 29°43' W 095°14'0 0.0
2017-Nov-17 10:27N 29°43' W 095°14'0 0.0
2017-Nov-17 09:59N 29°43' W 095°14'0 0.0
2017-Nov-17 09:24N 29°43' W 095°14'0 0.0
2017-Nov-17 08:54N 29°43' W 095°14'0 0.0
2017-Nov-17 08:30N 29°43' W 095°14'0 0.1
2017-Nov-17 07:59N 29°43' W 095°14'0 0.1
2017-Nov-17 07:30N 29°43' W 095°14'0 0.0
2017-Nov-17 07:00N 29°43' W 095°14'0 0.0
2017-Nov-17 06:30N 29°43' W 095°14'0 0.0
2017-Nov-17 06:01N 29°43' W 095°14'0 0.0
2017-Nov-17 05:28N 29°43' W 095°14'0 0.0
2017-Nov-17 04:59N 29°43' W 095°14'0 0.0
2017-Nov-17 04:25N 29°43' W 095°14'0 0.9
2017-Nov-17 04:00N 29°43' W 095°14'2 4.1
2017-Nov-17 03:30N 29°44' W 095°12'3 5.8
2017-Nov-17 03:00N 29°44' W 095°09'4 6.7
2017-Nov-17 02:28N 29°46' W 095°05'1 1.3
2017-Nov-17 01:43N 29°46' W 095°04'0 0.8
2017-Nov-17 01:22N 29°46' W 095°04'1 1.2
2017-Nov-17 00:37N 29°46' W 095°05'0 0.0
2017-Nov-16 20:27N 29°46' W 095°05'1 1.6
2017-Nov-16 19:33N 29°45' W 095°06'2 0.2
2017-Nov-16 12:02N 29°46' W 095°05'0 6.7
2017-Nov-16 11:59N 29°46' W 095°05'0 0.4
2017-Nov-16 11:10N 29°46' W 095°06'0 0.1
2017-Nov-16 08:35N 29°46' W 095°05'1 5.3
2017-Nov-16 08:20N 29°45' W 095°06'0 0.0
2017-Nov-16 06:28N 29°45' W 095°06'0 0.1
2017-Nov-16 05:59N 29°45' W 095°06'2 0.6
2017-Nov-16 03:01N 29°46' W 095°05'0 4.9
2017-Nov-16 02:58N 29°46' W 095°05'1 1.6
2017-Nov-16 02:02N 29°45' W 095°06'0 1.0
2017-Nov-16 01:55N 29°45' W 095°06'0 0.0
2017-Nov-16 01:23N 29°45' W 095°06'0 0.0
2017-Nov-16 00:58N 29°45' W 095°06'3 3.2
2017-Nov-16 00:04N 29°44' W 095°03'1 6.6
2017-Nov-15 23:57N 29°44' W 095°02'2 5.5
2017-Nov-15 23:30N 29°42' W 095°00'3 6.4
2017-Nov-15 23:00N 29°39' W 094°58'3 6.7
2017-Nov-15 22:30N 29°36' W 094°57'3 6.3
2017-Nov-15 22:00N 29°33' W 094°55'  
2017-Nov-12 03:42N 29°03' W 095°13'33 4.9
2017-Nov-11 21:03N 29°30' W 094°52'1 6.6
2017-Nov-11 20:57N 29°30' W 094°53'3 6.5
2017-Nov-11 20:30N 29°33' W 094°54'3 6.6
2017-Nov-11 20:00N 29°35' W 094°57'3 6.5
2017-Nov-11 19:30N 29°38' W 094°58'3 6.8
2017-Nov-11 19:00N 29°42' W 094°60'3 6.3
2017-Nov-11 18:30N 29°44' W 095°02'3 1.1
2017-Nov-11 15:36N 29°46' W 095°05'1 0.9
2017-Nov-11 14:22N 29°46' W 095°06'0 0.8
2017-Nov-11 13:58N 29°46' W 095°06'1 2.0
2017-Nov-11 13:26N 29°45' W 095°06'3 6.8
2017-Nov-11 12:59N 29°45' W 095°10'3 6.0
2017-Nov-11 12:29N 29°43' W 095°13'1 2.0
2017-Nov-11 12:00N 29°43' W 095°14'0 0.0
2017-Nov-11 11:27N 29°43' W 095°14'3 5.6
2017-Nov-11 11:00N 29°45' W 095°12'3 6.5
2017-Nov-11 10:29N 29°44' W 095°08'2 3.5
2017-Nov-11 09:53N 29°46' W 095°06'0 0.0
2017-Nov-11 09:30N 29°46' W 095°06'0 0.0
2017-Nov-11 09:00N 29°46' W 095°06'0 0.0
2017-Nov-11 08:29N 29°46' W 095°06'0 0.0
2017-Nov-11 08:00N 29°46' W 095°06'0 0.0
2017-Nov-11 07:30N 29°45' W 095°06'0 0.0
2017-Nov-11 07:00N 29°46' W 095°06'0 0.5
2017-Nov-11 06:07N 29°46' W 095°06'1 6.0
2017-Nov-11 05:55N 29°46' W 095°04'0 0.4
2017-Nov-11 05:22N 29°46' W 095°04'1 0.1
2017-Nov-11 01:43N 29°46' W 095°05'0 0.1
2017-Nov-11 01:29N 29°46' W 095°05'1 1.4
2017-Nov-11 00:59N 29°46' W 095°05'0 0.1
2017-Nov-10 23:05N 29°46' W 095°05'  
2017-Nov-08 07:55N 29°46' W 095°05'3 6.1
2017-Nov-08 07:29N 29°44' W 095°03'  

Dump ship's entire track history